createdAt,value
2023-04-06T00:01:53.432Z,101107.59
2023-04-06T00:04:38.900Z,101094.50
2023-04-06T00:07:24.178Z,101092.78
2023-04-06T00:10:10.521Z,101091.81
2023-04-06T00:12:57.641Z,101098.66
2023-04-06T00:15:43.095Z,101097.69
2023-04-06T00:18:28.734Z,101101.03
2023-04-06T00:21:15.681Z,101097.47
2023-04-06T00:24:01.186Z,101096.44
2023-04-06T00:26:46.585Z,101089.38
2023-04-06T00:29:31.809Z,101088.44
2023-04-06T00:32:17.330Z,101094.38
2023-04-06T00:35:04.387Z,101085.66
2023-04-06T00:37:49.721Z,101079.50
2023-04-06T00:40:36.375Z,101080.31
2023-04-06T00:43:21.953Z,101084.69
2023-04-06T00:46:07.538Z,101087.25
2023-04-06T00:48:53.081Z,101081.19
2023-04-06T00:51:38.472Z,101095.88
2023-04-06T00:54:24.404Z,101093.25
2023-04-06T00:57:11.341Z,101105.31
2023-04-06T00:59:57.281Z,101100.94
2023-04-06T01:02:43.166Z,101099.19
2023-04-06T01:05:29.680Z,101089.59
2023-04-06T01:08:17.411Z,101086.97
2023-04-06T01:11:03.943Z,101100.78
2023-04-06T01:13:49.527Z,101101.72
2023-04-06T01:16:47.407Z,101105.13
2023-04-06T01:19:36.838Z,101112.13
2023-04-06T01:22:24.982Z,101109.50
2023-04-06T01:25:16.324Z,101105.22
2023-04-06T01:28:21.999Z,101097.41
2023-04-06T01:31:16.865Z,101093.13
2023-04-06T01:34:09.558Z,101089.66
2023-04-06T01:36:54.872Z,101091.41
2023-04-06T01:39:47.307Z,101081.91
2023-04-06T01:42:43.466Z,101076.66
2023-04-06T01:45:31.479Z,101075.81
2023-04-06T01:48:23.739Z,101072.34
2023-04-06T01:51:09.137Z,101074.03
2023-04-06T01:54:03.759Z,101068.81
2023-04-06T01:57:02.418Z,101069.69
2023-04-06T01:59:56.372Z,101074.88
2023-04-06T02:02:58.899Z,101069.69
2023-04-06T02:05:47.420Z,101063.63
2023-04-06T02:08:55.673Z,101067.16
2023-04-06T02:11:41.804Z,101069.78
2023-04-06T02:14:27.248Z,101067.19
2023-04-06T02:17:16.490Z,101073.22
2023-04-06T02:20:02.181Z,101068.88
2023-04-06T02:22:48.500Z,101068.03
2023-04-06T02:25:34.449Z,101063.69
2023-04-06T02:28:19.823Z,101062.72
2023-04-06T02:31:05.568Z,101060.13
2023-04-06T02:33:51.005Z,101064.41
2023-04-06T02:36:36.790Z,101066.09
2023-04-06T02:39:22.209Z,101061.75
2023-04-06T02:42:09.810Z,101072.13
2023-04-06T02:44:55.704Z,101070.31
2023-04-06T02:47:46.377Z,101061.69
2023-04-06T02:50:35.347Z,101059.94
2023-04-06T02:53:24.523Z,101065.13
2023-04-06T02:56:09.855Z,101080.66
2023-04-06T02:59:04.966Z,101074.56
2023-04-06T03:01:52.419Z,101073.66
2023-04-06T03:04:38.259Z,101080.59
2023-04-06T03:07:29.751Z,101073.66
2023-04-06T03:10:15.317Z,101076.16
2023-04-06T03:13:03.088Z,101072.69
2023-04-06T03:16:07.638Z,101076.16
2023-04-06T03:18:54.406Z,101065.75
2023-04-06T03:21:40.879Z,101077.00
2023-04-06T03:24:26.992Z,101075.28
2023-04-06T03:27:12.448Z,101074.34
2023-04-06T03:30:01.390Z,101069.13
2023-04-06T03:32:51.494Z,101074.31
2023-04-06T03:35:39.235Z,101073.44
2023-04-06T03:38:25.048Z,101076.84
2023-04-06T03:41:10.747Z,101076.84
2023-04-06T03:43:57.912Z,101067.31
2023-04-06T03:46:43.445Z,101082.84
2023-04-06T03:49:30.256Z,101073.28
2023-04-06T03:52:17.722Z,101074.09
2023-04-06T03:55:03.552Z,101080.97
2023-04-06T03:57:49.036Z,101085.31
2023-04-06T04:00:34.697Z,101091.31
2023-04-06T04:03:20.552Z,101090.44
2023-04-06T04:06:06.884Z,101096.47
2023-04-06T04:08:53.379Z,101095.56
2023-04-06T04:11:38.759Z,101096.44
2023-04-06T04:14:24.159Z,101102.41
2023-04-06T04:17:09.609Z,101102.34
2023-04-06T04:19:54.980Z,101108.28
2023-04-06T04:22:41.512Z,101103.03
2023-04-06T04:25:27.824Z,101098.63
2023-04-06T04:28:13.350Z,101101.19
2023-04-06T04:31:01.013Z,101097.59
2023-04-06T04:33:49.834Z,101096.72
2023-04-06T04:36:45.809Z,101097.56
2023-04-06T04:39:38.613Z,101109.63
2023-04-06T04:42:26.010Z,101123.44
2023-04-06T04:45:15.477Z,101123.44
2023-04-06T04:48:01.795Z,101117.41
2023-04-06T04:50:56.376Z,101129.53
2023-04-06T04:53:46.287Z,101126.97
2023-04-06T04:56:46.085Z,101126.97
2023-04-06T04:59:48.963Z,101125.25
2023-04-06T05:02:37.587Z,101126.09
2023-04-06T05:05:36.275Z,101122.69
2023-04-06T05:08:23.674Z,101125.25
2023-04-06T05:11:10.461Z,101119.88
2023-04-06T05:14:01.802Z,101124.88
2023-04-06T05:16:47.735Z,101135.91
2023-04-06T05:19:33.557Z,101138.31
2023-04-06T05:22:20.176Z,101143.41
2023-04-06T05:25:12.789Z,101157.22
2023-04-06T05:27:59.184Z,101157.16
2023-04-06T05:30:48.808Z,101159.81
2023-04-06T05:33:35.628Z,101155.59
2023-04-06T05:36:25.905Z,101162.59
2023-04-06T05:39:13.499Z,101161.81
2023-04-06T05:42:07.642Z,101167.06
2023-04-06T05:45:19.630Z,101161.91
2023-04-06T05:48:10.698Z,101160.19
2023-04-06T05:50:57.272Z,101170.56
2023-04-06T05:53:49.816Z,101168.09
2023-04-06T05:56:35.257Z,101171.59
2023-04-06T05:59:21.999Z,101181.13
2023-04-06T06:02:07.559Z,101184.63
2023-04-06T06:04:57.951Z,101179.44
2023-04-06T06:07:45.321Z,101189.84
2023-04-06T06:10:31.656Z,101189.03
2023-04-06T06:13:18.041Z,101194.19
2023-04-06T06:16:06.331Z,101197.63
2023-04-06T06:18:55.304Z,101207.16
2023-04-06T06:21:41.210Z,101205.44
2023-04-06T06:24:26.932Z,101214.94
2023-04-06T06:27:12.864Z,101217.53
2023-04-06T06:29:58.606Z,101214.94
2023-04-06T06:32:44.217Z,101225.25
2023-04-06T06:35:30.603Z,101226.94
2023-04-06T06:38:21.450Z,101232.13
2023-04-06T06:41:09.012Z,101235.59
2023-04-06T06:43:56.261Z,101233.72
2023-04-06T06:46:41.748Z,101232.00
2023-04-06T06:49:27.331Z,101229.50
2023-04-06T06:52:12.803Z,101238.13
2023-04-06T06:54:58.242Z,101240.72
2023-04-06T06:57:44.300Z,101235.44
2023-04-06T07:00:30.241Z,101242.41
2023-04-06T07:03:16.038Z,101243.34
2023-04-06T07:06:02.552Z,101248.59
2023-04-06T07:08:48.241Z,101246.16
2023-04-06T07:11:33.756Z,101248.88
2023-04-06T07:14:19.775Z,101251.59
2023-04-06T07:17:05.602Z,101252.50
2023-04-06T07:19:51.675Z,101252.56
2023-04-06T07:22:40.787Z,101253.44
2023-04-06T07:25:26.702Z,101252.53
2023-04-06T07:28:12.115Z,101255.97
2023-04-06T07:30:58.293Z,101258.50
2023-04-06T07:33:44.118Z,101260.13
2023-04-06T07:36:29.820Z,101261.84
2023-04-06T07:39:15.458Z,101268.84
2023-04-06T07:42:01.307Z,101268.09
2023-04-06T07:44:47.235Z,101273.38
2023-04-06T07:47:32.635Z,101271.78
2023-04-06T07:50:18.692Z,101264.81
2023-04-06T07:53:04.375Z,101266.53
2023-04-06T07:55:50.775Z,101268.22
2023-04-06T07:58:36.259Z,101268.16
2023-04-06T08:01:21.522Z,101273.53
2023-04-06T08:04:07.170Z,101276.59
2023-04-06T08:06:53.049Z,101283.88
2023-04-06T08:09:38.784Z,101286.56
2023-04-06T08:12:24.162Z,101278.75
2023-04-06T08:15:09.840Z,101274.63
2023-04-06T08:17:58.336Z,101272.13
2023-04-06T08:20:44.071Z,101270.53
2023-04-06T08:23:29.351Z,101271.38
2023-04-06T08:26:14.841Z,101278.47
2023-04-06T08:29:00.148Z,101269.03
2023-04-06T08:31:45.445Z,101269.09
2023-04-06T08:34:30.839Z,101274.31
2023-04-06T08:37:16.220Z,101266.69
2023-04-06T08:40:02.068Z,101272.00
2023-04-06T08:42:53.705Z,101272.34
2023-04-06T08:45:40.542Z,101270.56
2023-04-06T08:48:26.758Z,101276.00
2023-04-06T08:51:12.882Z,101277.09
2023-04-06T08:54:00.473Z,101277.22
2023-04-06T08:56:47.069Z,101276.41
2023-04-06T08:59:33.773Z,101276.41
2023-04-06T09:02:20.621Z,101268.66
2023-04-06T09:05:09.544Z,101281.16
2023-04-06T09:07:55.089Z,101272.44
2023-04-06T09:10:42.323Z,101285.66
2023-04-06T09:13:27.702Z,101289.25
2023-04-06T09:16:13.350Z,101276.06
2023-04-06T09:19:06.048Z,101284.81
2023-04-06T09:21:51.381Z,101286.69
2023-04-06T09:24:48.000Z,101296.41
2023-04-06T09:27:35.584Z,101295.47
2023-04-06T09:30:20.770Z,101295.38
2023-04-06T09:33:06.423Z,101302.34
2023-04-06T09:35:52.100Z,101302.34
2023-04-06T09:38:54.496Z,101311.84
2023-04-06T09:41:40.469Z,101315.63
2023-04-06T09:44:25.872Z,101316.34
2023-04-06T09:47:11.358Z,101323.19
2023-04-06T09:50:01.390Z,101316.88
2023-04-06T09:52:52.358Z,101320.06
2023-04-06T09:55:46.832Z,101322.69
2023-04-06T09:58:37.079Z,101330.00
2023-04-06T10:01:24.680Z,101320.97
2023-04-06T10:04:45.042Z,101314.09
2023-04-06T10:07:31.090Z,101312.25
2023-04-06T10:10:16.771Z,101324.06
2023-04-06T10:13:02.953Z,101336.22
2023-04-06T10:15:49.281Z,101323.19
2023-04-06T10:18:34.789Z,101326.22
2023-04-06T10:21:22.850Z,101333.72
2023-04-06T10:24:14.556Z,101324.44
2023-04-06T10:27:03.111Z,101334.03
2023-04-06T10:29:52.333Z,101326.84
2023-04-06T10:32:39.203Z,101336.06
2023-04-06T10:35:25.331Z,101339.56
2023-04-06T10:38:11.086Z,101339.44
2023-04-06T10:41:11.590Z,101348.19
2023-04-06T10:43:58.173Z,101337.78
2023-04-06T10:46:54.037Z,101339.84
2023-04-06T10:49:39.583Z,101340.06
2023-04-06T10:52:25.937Z,101338.31
2023-04-06T10:55:11.793Z,101340.00
2023-04-06T10:57:57.251Z,101347.72
2023-04-06T11:00:51.374Z,101343.53
2023-04-06T11:03:44.672Z,101341.16
2023-04-06T11:06:32.498Z,101351.41
2023-04-06T11:09:28.373Z,101347.75
2023-04-06T11:12:43.018Z,101359.97
2023-04-06T11:15:37.384Z,101349.81
2023-04-06T11:18:23.727Z,101346.56
2023-04-06T11:21:09.278Z,101359.78
2023-04-06T11:24:08.043Z,101361.53
2023-04-06T11:27:02.064Z,101356.19
2023-04-06T11:29:47.868Z,101359.06
2023-04-06T11:32:45.279Z,101356.66
2023-04-06T11:35:32.346Z,101354.03
2023-04-06T11:38:20.500Z,101366.84
2023-04-06T11:41:06.132Z,101368.44
2023-04-06T11:43:51.771Z,101369.06
2023-04-06T11:46:37.312Z,101371.69
2023-04-06T11:49:22.884Z,101363.31
2023-04-06T11:52:23.812Z,101371.31
2023-04-06T11:55:15.241Z,101366.91
2023-04-06T11:58:01.322Z,101366.97
2023-04-06T12:00:47.998Z,101377.50
2023-04-06T12:03:33.274Z,101378.44
2023-04-06T12:06:19.648Z,101382.81
2023-04-06T12:09:05.310Z,101382.59
2023-04-06T12:11:50.941Z,101379.13
2023-04-06T12:14:36.454Z,101381.69
2023-04-06T12:17:21.992Z,101379.16
2023-04-06T12:20:22.025Z,101384.34
2023-04-06T12:23:10.737Z,101373.78
2023-04-06T12:25:56.513Z,101374.78
2023-04-06T12:28:42.166Z,101379.41
2023-04-06T12:31:28.461Z,101384.78
2023-04-06T12:34:13.923Z,101376.88
2023-04-06T12:36:59.404Z,101389.06
2023-04-06T12:39:45.911Z,101384.66
2023-04-06T12:42:31.620Z,101386.50
2023-04-06T12:45:17.310Z,101387.44
2023-04-06T12:48:02.777Z,101386.53
2023-04-06T12:51:01.872Z,101384.78
2023-04-06T12:53:47.153Z,101385.69
2023-04-06T12:56:32.625Z,101402.13
2023-04-06T12:59:18.115Z,101399.44
2023-04-06T13:02:04.729Z,101411.47
2023-04-06T13:04:51.513Z,101407.88
2023-04-06T13:07:37.180Z,101402.91
2023-04-06T13:10:22.393Z,101407.44
2023-04-06T13:13:07.920Z,101406.63
2023-04-06T13:16:00.190Z,101408.38
2023-04-06T13:18:45.733Z,101412.69
2023-04-06T13:21:31.549Z,101409.91
2023-04-06T13:24:17.797Z,101410.91
2023-04-06T13:27:03.649Z,101420.59
2023-04-06T13:29:49.069Z,101417.09
2023-04-06T13:32:34.405Z,101415.31
2023-04-06T13:35:19.853Z,101419.69
2023-04-06T13:38:05.573Z,101421.47
2023-04-06T13:40:51.916Z,101415.34
2023-04-06T13:43:37.736Z,101415.31
2023-04-06T13:46:25.221Z,101419.63
2023-04-06T13:49:10.765Z,101422.25
2023-04-06T13:51:56.484Z,101429.22
2023-04-06T13:54:41.753Z,101422.19
2023-04-06T13:57:27.369Z,101419.63
2023-04-06T14:00:15.608Z,101427.44
2023-04-06T14:03:01.323Z,101425.66
2023-04-06T14:05:47.298Z,101422.19
2023-04-06T14:08:32.714Z,101426.41
2023-04-06T14:11:17.972Z,101428.19
2023-04-06T14:14:03.400Z,101431.78
2023-04-06T14:16:48.652Z,101425.75
2023-04-06T14:19:34.201Z,101431.06
2023-04-06T14:22:19.835Z,101428.44
2023-04-06T14:25:05.541Z,101426.66
2023-04-06T14:27:51.842Z,101425.81
2023-04-06T14:30:37.105Z,101421.38
2023-04-06T14:33:22.445Z,101422.19
2023-04-06T14:36:09.309Z,101433.34
2023-04-06T14:38:54.855Z,101425.38
2023-04-06T14:41:40.701Z,101432.50
2023-04-06T14:44:26.284Z,101426.47
2023-04-06T14:47:12.271Z,101426.19
2023-04-06T14:49:58.697Z,101418.03
2023-04-06T14:52:44.396Z,101430.91
2023-04-06T14:55:29.750Z,101432.03
2023-04-06T14:58:14.972Z,101419.75
2023-04-06T15:01:01.489Z,101420.56
2023-04-06T15:03:47.837Z,101427.88
2023-04-06T15:06:34.002Z,101420.91
2023-04-06T15:09:19.426Z,101425.31
2023-04-06T15:12:05.342Z,101432.44
2023-04-06T15:14:51.125Z,101428.94
2023-04-06T15:17:36.880Z,101430.91
2023-04-06T15:20:22.094Z,101437.03
2023-04-06T15:23:07.577Z,101442.19
2023-04-06T15:25:53.324Z,101441.31
2023-04-06T15:28:38.773Z,101450.88
2023-04-06T15:31:36.658Z,101440.38
2023-04-06T15:34:23.196Z,101458.59
2023-04-06T15:37:09.332Z,101461.19
2023-04-06T15:39:54.645Z,101453.19
2023-04-06T15:42:40.745Z,101451.44
2023-04-06T15:45:27.354Z,101454.94
2023-04-06T15:48:12.951Z,101454.09
2023-04-06T15:50:59.025Z,101455.03
2023-04-06T15:53:45.409Z,101449.56
2023-04-06T15:56:32.902Z,101444.94
2023-04-06T15:59:18.542Z,101451.97
2023-04-06T16:02:03.836Z,101449.38
2023-04-06T16:04:59.154Z,101463.38
2023-04-06T16:07:44.694Z,101465.19
2023-04-06T16:10:30.338Z,101467.09
2023-04-06T16:13:16.128Z,101475.19
2023-04-06T16:16:01.877Z,101471.75
2023-04-06T16:18:47.585Z,101463.03
2023-04-06T16:21:32.926Z,101469.13
2023-04-06T16:24:18.105Z,101476.25
2023-04-06T16:27:04.042Z,101480.72
2023-04-06T16:29:49.367Z,101486.88
2023-04-06T16:32:34.947Z,101480.72
2023-04-06T16:35:20.674Z,101476.41
2023-04-06T16:38:06.663Z,101487.78
2023-04-06T16:41:05.106Z,101488.66
2023-04-06T16:43:51.139Z,101487.75
2023-04-06T16:46:38.965Z,101486.81
2023-04-06T16:49:24.459Z,101490.25
2023-04-06T16:52:10.808Z,101488.50
2023-04-06T16:54:56.716Z,101491.19
2023-04-06T16:57:42.389Z,101499.91
2023-04-06T17:00:27.733Z,101499.94
2023-04-06T17:03:13.160Z,101497.38
2023-04-06T17:05:58.790Z,101506.94
2023-04-06T17:08:45.843Z,101497.34
2023-04-06T17:11:43.673Z,101505.16
2023-04-06T17:14:32.128Z,101508.72
2023-04-06T17:17:17.961Z,101510.47
2023-04-06T17:20:03.447Z,101505.22
2023-04-06T17:22:49.767Z,101500.88
2023-04-06T17:25:36.257Z,101500.03
2023-04-06T17:28:21.874Z,101511.41
2023-04-06T17:31:10.118Z,101511.41
2023-04-06T17:33:55.566Z,101520.13
2023-04-06T17:36:41.024Z,101523.59
2023-04-06T17:39:26.405Z,101518.34
2023-04-06T17:42:11.932Z,101523.59
2023-04-06T17:44:59.413Z,101527.97
2023-04-06T17:47:45.098Z,101531.44
2023-04-06T17:50:30.662Z,101534.91
2023-04-06T17:53:18.866Z,101543.63
2023-04-06T17:56:05.005Z,101536.63
2023-04-06T18:01:41.581Z,101545.25
2023-04-06T18:04:26.957Z,101550.47
2023-04-06T18:07:12.474Z,101554.72
2023-04-06T18:09:59.600Z,101567.75
2023-04-06T18:12:45.129Z,101567.66
2023-04-06T18:15:31.472Z,101572.66
2023-04-06T18:18:17.122Z,101577.66
2023-04-06T18:21:06.685Z,101577.47
2023-04-06T18:23:53.319Z,101576.44
2023-04-06T18:26:38.832Z,101567.66
2023-04-06T18:29:24.098Z,101571.94
2023-04-06T18:32:09.520Z,101568.34
2023-04-06T18:34:57.558Z,101581.31
2023-04-06T18:37:43.100Z,101583.75
2023-04-06T18:40:39.151Z,101587.94
2023-04-06T18:43:25.471Z,101592.19
2023-04-06T18:46:19.601Z,101595.56
2023-04-06T18:49:05.693Z,101599.81
2023-04-06T18:51:51.369Z,101610.16
2023-04-06T18:54:36.858Z,101597.81
2023-04-06T18:57:22.233Z,101609.09
2023-04-06T19:00:08.442Z,101611.59
2023-04-06T19:02:54.597Z,101624.59
2023-04-06T19:05:43.393Z,101627.09
2023-04-06T19:08:29.094Z,101628.66
2023-04-06T19:11:15.141Z,101625.88
2023-04-06T19:14:00.745Z,101624.88
2023-04-06T19:16:52.355Z,101624.69
2023-04-06T19:19:37.879Z,101627.06
2023-04-06T19:22:23.605Z,101629.50
2023-04-06T19:25:09.057Z,101626.66
2023-04-06T19:27:54.669Z,101628.16
2023-04-06T19:30:41.428Z,101625.38
2023-04-06T19:33:26.733Z,101639.94
2023-04-06T19:36:12.170Z,101630.16
2023-04-06T19:38:57.860Z,101643.84
2023-04-06T19:41:43.974Z,101638.31
2023-04-06T19:44:29.314Z,101651.00
2023-04-06T19:47:17.915Z,101661.94
2023-04-06T19:50:04.397Z,101653.78
2023-04-06T19:52:49.918Z,101657.63
2023-04-06T19:55:37.319Z,101660.56
2023-04-06T19:58:23.839Z,101659.84
2023-04-06T20:01:09.675Z,101659.19
2023-04-06T20:03:55.090Z,101668.84
2023-04-06T20:06:40.490Z,101679.56
2023-04-06T20:09:26.010Z,101680.00
2023-04-06T20:12:11.715Z,101683.06
2023-04-06T20:14:57.406Z,101691.19
2023-04-06T20:17:43.163Z,101692.47
2023-04-06T20:20:28.813Z,101695.50
2023-04-06T20:23:14.262Z,101702.38
2023-04-06T20:25:59.611Z,101699.72
2023-04-06T20:28:45.484Z,101702.13
2023-04-06T20:31:30.970Z,101702.16
2023-04-06T20:34:16.487Z,101706.25
2023-04-06T20:37:02.281Z,101707.59
2023-04-06T20:39:48.399Z,101710.53
2023-04-06T20:42:34.690Z,101716.72
2023-04-06T20:45:20.482Z,101715.91
2023-04-06T20:48:06.432Z,101719.50
2023-04-06T20:50:53.029Z,101721.06
2023-04-06T20:53:38.320Z,101728.50
2023-04-06T20:56:23.760Z,101729.09
2023-04-06T20:59:09.061Z,101727.09
2023-04-06T21:01:54.650Z,101740.00
2023-04-06T21:04:40.916Z,101752.53
2023-04-06T21:07:26.566Z,101752.06
2023-04-06T21:10:12.315Z,101755.16
2023-04-06T21:12:57.512Z,101763.56
2023-04-06T21:15:42.938Z,101764.47
2023-04-06T21:18:28.353Z,101775.75
2023-04-06T21:21:14.184Z,101779.63
2023-04-06T21:24:00.362Z,101784.75
2023-04-06T21:26:45.823Z,101773.59
2023-04-06T21:29:32.547Z,101772.09
2023-04-06T21:32:18.206Z,101766.09
2023-04-06T21:35:03.907Z,101760.56
2023-04-06T21:37:49.518Z,101755.06
2023-04-06T21:40:35.315Z,101757.66
2023-04-06T21:43:20.728Z,101750.25
2023-04-06T21:46:06.059Z,101750.94
2023-04-06T21:48:51.553Z,101751.63
2023-04-06T21:51:37.133Z,101749.63
2023-04-06T21:54:22.580Z,101745.28
2023-04-06T21:57:07.987Z,101746.91
2023-04-06T21:59:53.263Z,101749.09
2023-04-06T22:02:40.981Z,101747.09
2023-04-06T22:05:26.910Z,101755.69
2023-04-06T22:08:17.809Z,101761.03
2023-04-06T22:11:11.799Z,101760.91
2023-04-06T22:13:57.123Z,101766.06
2023-04-06T22:16:42.615Z,101766.81
2023-04-06T22:19:28.385Z,101765.31
2023-04-06T22:22:13.673Z,101762.19
2023-04-06T22:25:00.496Z,101769.50
2023-04-06T22:27:46.072Z,101762.13
2023-04-06T22:30:31.845Z,101758.72
2023-04-06T22:33:17.722Z,101758.31
2023-04-06T22:36:03.179Z,101765.97
2023-04-06T22:38:50.878Z,101766.56
2023-04-06T22:41:36.530Z,101781.44
2023-04-06T22:44:22.211Z,101791.06
2023-04-06T22:47:07.962Z,101792.19
2023-04-06T22:49:53.223Z,101799.22
2023-04-06T22:52:38.682Z,101802.69
2023-04-06T22:55:24.272Z,101798.59
2023-04-06T22:58:09.842Z,101798.66
2023-04-06T23:00:55.648Z,101791.84
2023-04-06T23:03:41.559Z,101795.75
2023-04-06T23:06:27.440Z,101801.91
2023-04-06T23:09:12.826Z,101801.81
2023-04-06T23:11:58.105Z,101802.72
2023-04-06T23:14:46.399Z,101803.38
2023-04-06T23:17:32.017Z,101808.66
2023-04-06T23:20:17.246Z,101821.84
2023-04-06T23:23:02.752Z,101825.19
2023-04-06T23:25:48.043Z,101822.94
2023-04-06T23:28:33.433Z,101825.34
2023-04-06T23:31:18.847Z,101832.78
2023-04-06T23:34:04.611Z,101834.16
2023-04-06T23:36:50.787Z,101836.78
2023-04-06T23:39:36.660Z,101833.59
2023-04-06T23:42:22.302Z,101840.38
2023-04-06T23:45:14.164Z,101836.94
2023-04-06T23:47:59.671Z,101837.16
2023-04-06T23:50:45.001Z,101838.94
2023-04-06T23:53:30.488Z,101831.84
2023-04-06T23:56:16.101Z,101832.78
2023-04-06T23:59:01.671Z,101839.56
